createdAt,value
2019-05-22T00:00:47.819Z,1.63
2019-05-22T00:03:16.156Z,1.40
2019-05-22T00:05:42.962Z,1.90
2019-05-22T00:08:09.741Z,1.50
2019-05-22T00:10:38.598Z,1.70
2019-05-22T00:13:05.763Z,1.50
2019-05-22T00:15:32.664Z,1.60
2019-05-22T00:18:01.624Z,1.90
2019-05-22T00:20:28.221Z,1.87
2019-05-22T00:22:54.816Z,1.83
2019-05-22T00:25:23.278Z,1.80
2019-05-22T00:27:49.871Z,2.00
2019-05-22T00:30:16.735Z,1.70
2019-05-22T00:32:45.331Z,1.37
2019-05-22T00:35:12.030Z,1.80
2019-05-22T00:37:38.828Z,1.33
2019-05-22T00:40:07.438Z,1.37
2019-05-22T00:42:34.068Z,1.40
2019-05-22T00:45:00.755Z,1.60
2019-05-22T00:47:29.495Z,1.60
2019-05-22T00:49:56.306Z,1.30
2019-05-22T00:52:23.092Z,1.50
2019-05-22T00:54:52.037Z,1.30
2019-05-22T00:57:18.634Z,1.50
2019-05-22T00:59:45.511Z,1.47
2019-05-22T01:02:14.168Z,1.37
2019-05-22T01:04:40.750Z,1.50
2019-05-22T01:07:07.566Z,1.80
2019-05-22T01:09:36.508Z,1.80
2019-05-22T01:12:03.970Z,1.57
2019-05-22T01:14:42.569Z,1.40
2019-05-22T01:17:03.378Z,1.33
2019-05-22T01:19:30.309Z,1.50
2019-05-22T01:21:57.130Z,1.40
2019-05-22T01:24:27.228Z,1.60
2019-05-22T01:26:53.816Z,1.50
2019-05-22T01:29:22.111Z,1.50
2019-05-22T01:31:51.957Z,1.60
2019-05-22T01:34:18.778Z,1.20
2019-05-22T01:36:45.623Z,1.50
2019-05-22T01:39:14.205Z,1.50
2019-05-22T01:41:41.080Z,1.80
2019-05-22T01:44:07.795Z,1.30
2019-05-22T01:46:37.270Z,1.57
2019-05-22T01:49:03.869Z,1.20
2019-05-22T01:51:30.667Z,1.40
2019-05-22T01:53:59.233Z,1.30
2019-05-22T01:56:27.321Z,1.22
2019-05-22T01:58:53.903Z,1.30
2019-05-22T02:01:22.748Z,1.27
2019-05-22T02:03:49.373Z,1.30
2019-05-22T02:06:15.955Z,1.50
2019-05-22T02:08:44.849Z,1.20
2019-05-22T02:11:11.447Z,1.60
2019-05-22T02:13:38.056Z,0.90
2019-05-22T02:16:06.648Z,1.10
2019-05-22T02:18:33.528Z,1.30
2019-05-22T02:21:00.384Z,1.20
2019-05-22T02:23:29.908Z,1.13
2019-05-22T02:25:56.779Z,1.60
2019-05-22T02:28:23.377Z,1.30
2019-05-22T02:30:52.122Z,1.40
2019-05-22T02:33:18.993Z,1.20
2019-05-22T02:35:45.572Z,1.37
2019-05-22T02:38:14.394Z,1.37
2019-05-22T02:40:40.975Z,1.37
2019-05-22T02:43:07.844Z,1.40
2019-05-22T02:45:36.733Z,1.62
2019-05-22T02:48:03.335Z,1.27
2019-05-22T02:56:05.333Z,1.10
2019-05-22T02:58:33.997Z,1.25
2019-05-22T03:01:00.700Z,1.47
2019-05-22T03:03:27.425Z,1.50
2019-05-22T03:05:56.787Z,1.30
2019-05-22T03:08:23.362Z,1.20
2019-05-22T03:10:49.946Z,1.40
2019-05-22T03:13:18.732Z,1.33
2019-05-22T03:15:45.590Z,1.30
2019-05-22T03:18:13.393Z,1.17
2019-05-22T03:20:42.204Z,1.20
2019-05-22T03:23:08.790Z,1.10
2019-05-22T03:25:35.380Z,1.00
2019-05-22T03:28:03.951Z,1.40
2019-05-22T03:30:30.575Z,1.20
2019-05-22T03:32:57.216Z,1.20
2019-05-22T03:35:25.589Z,1.57
2019-05-22T03:37:53.483Z,1.60
2019-05-22T03:40:20.107Z,1.20
2019-05-22T03:42:49.080Z,1.35
2019-05-22T03:50:11.782Z,1.40
2019-05-22T03:52:38.359Z,1.60
2019-05-22T03:55:05.214Z,1.50
2019-05-22T03:57:34.415Z,1.20
2019-05-22T04:00:01.028Z,1.42
2019-05-22T04:02:27.629Z,1.40
2019-05-22T04:04:56.508Z,1.20
2019-05-22T04:09:49.615Z,1.40
2019-05-22T04:17:12.690Z,1.80
2019-05-22T04:19:49.403Z,1.80
2019-05-22T04:22:09.613Z,1.67
2019-05-22T04:24:36.393Z,1.80
2019-05-22T04:27:08.526Z,2.03
2019-05-22T04:34:32.583Z,2.27
2019-05-22T04:39:25.721Z,1.62
2019-05-22T04:41:54.301Z,2.00
2019-05-22T04:44:20.884Z,2.40
2019-05-22T04:46:47.777Z,2.10
2019-05-22T04:51:48.316Z,2.33
2019-05-22T04:54:14.921Z,2.37
2019-05-22T04:56:41.673Z,2.00
2019-05-22T04:59:10.418Z,2.60
2019-05-22T05:01:37.367Z,2.12
2019-05-22T05:04:03.968Z,2.33
2019-05-22T05:06:33.765Z,2.20
2019-05-22T05:09:00.361Z,2.30
2019-05-22T05:11:26.946Z,2.00
2019-05-22T05:13:55.549Z,2.60
2019-05-22T05:16:25.274Z,2.30
2019-05-22T05:18:52.146Z,2.67
2019-05-22T05:21:20.738Z,2.30
2019-05-22T05:23:47.607Z,2.70
2019-05-22T05:26:14.215Z,2.23
2019-05-22T05:28:43.247Z,2.20
2019-05-22T05:31:10.036Z,2.20
2019-05-22T05:33:37.522Z,2.05
2019-05-22T05:36:06.042Z,2.40
2019-05-22T05:38:32.638Z,5.47
2019-05-22T05:40:59.442Z,2.80
2019-05-22T05:43:28.343Z,3.17
2019-05-22T05:45:55.099Z,2.20
2019-05-22T05:48:21.781Z,1.80
2019-05-22T05:50:49.992Z,2.20
2019-05-22T05:53:16.567Z,2.20
2019-05-22T05:55:43.151Z,1.73
2019-05-22T05:58:11.986Z,1.93
2019-05-22T06:00:38.584Z,3.10
2019-05-22T06:03:05.404Z,1.90
2019-05-22T06:05:34.108Z,2.47
2019-05-22T06:08:00.697Z,2.17
2019-05-22T06:10:27.290Z,2.20
2019-05-22T06:12:56.032Z,2.07
2019-05-22T06:18:08.974Z,2.03
2019-05-22T06:20:35.898Z,2.73
2019-05-22T06:23:02.863Z,2.50
2019-05-22T06:25:31.653Z,2.50
2019-05-22T06:27:58.654Z,2.03
2019-05-22T06:30:25.561Z,2.50
2019-05-22T06:32:54.016Z,2.67
2019-05-22T06:35:20.644Z,2.77
2019-05-22T06:37:47.541Z,2.27
2019-05-22T06:40:16.510Z,2.20
2019-05-22T06:42:43.328Z,2.40
2019-05-22T06:45:09.901Z,2.27
2019-05-22T06:47:39.533Z,1.70
2019-05-22T06:50:06.169Z,1.90
2019-05-22T06:52:32.768Z,1.80
2019-05-22T06:55:01.676Z,1.60
2019-05-22T06:57:28.530Z,1.60
2019-05-22T07:00:11.987Z,1.73
2019-05-22T07:02:27.146Z,1.60
2019-05-22T07:04:56.201Z,1.73
2019-05-22T07:07:23.779Z,1.80
2019-05-22T07:09:53.687Z,1.77
2019-05-22T07:12:22.589Z,1.37
2019-05-22T07:14:51.004Z,1.77
2019-05-22T07:17:20.813Z,1.30
2019-05-22T12:12:01.484Z,0.37
2019-05-22T12:14:28.625Z,0.50
2019-05-22T12:16:55.534Z,0.53
2019-05-22T12:21:56.445Z,0.90
2019-05-22T12:24:30.189Z,0.80
2019-05-22T12:26:54.893Z,0.83
2019-05-22T12:29:28.721Z,0.70
2019-05-22T12:31:55.904Z,0.68
2019-05-22T12:34:23.082Z,0.83
2019-05-22T12:39:31.618Z,0.67
2019-05-22T12:41:58.443Z,0.70
2019-05-22T12:44:26.188Z,0.80
2019-05-22T12:46:56.561Z,0.75
2019-05-22T12:56:49.951Z,0.70
2019-05-22T12:59:21.784Z,0.83
2019-05-22T13:01:54.003Z,0.70
2019-05-22T13:04:28.537Z,0.75
2019-05-22T17:27:57.190Z,1.43
2019-05-22T17:32:50.682Z,1.30
2019-05-22T18:54:35.299Z,2.35
2019-05-22T18:57:04.439Z,2.20
2019-05-22T18:59:32.795Z,1.90
2019-05-22T19:02:00.557Z,2.60
2019-05-22T19:17:27.622Z,2.22
2019-05-22T20:11:09.549Z,2.10
2019-05-22T20:13:40.540Z,2.00
2019-05-22T20:16:07.414Z,2.20
2019-05-22T20:18:35.262Z,2.00
2019-05-22T20:21:05.286Z,2.10
2019-05-22T20:23:35.985Z,2.57
2019-05-22T20:26:03.145Z,2.27
2019-05-22T20:28:29.937Z,2.50
2019-05-22T20:31:03.082Z,2.67
2019-05-22T20:33:33.033Z,2.67
2019-05-22T20:35:59.901Z,2.43
2019-05-22T20:38:30.297Z,2.17
2019-05-22T20:41:01.428Z,2.17
2019-05-22T20:43:35.006Z,2.27
2019-05-22T20:45:59.057Z,2.73
2019-05-22T20:48:28.241Z,2.50
2019-05-22T20:50:54.784Z,2.23
2019-05-22T20:53:21.822Z,2.40
2019-05-22T20:55:50.144Z,2.58
2019-05-22T20:58:19.388Z,2.37
2019-05-22T21:00:46.236Z,2.63
2019-05-22T21:03:15.973Z,2.67
2019-05-22T21:05:42.267Z,2.63
2019-05-22T21:08:09.108Z,2.60
2019-05-22T21:10:36.120Z,2.97
2019-05-22T21:13:03.033Z,2.50
2019-05-22T21:15:31.967Z,2.83
2019-05-22T21:17:58.770Z,2.40
2019-05-22T21:20:25.413Z,3.17
2019-05-22T21:22:52.412Z,2.50
2019-05-22T21:25:22.687Z,3.03
2019-05-22T21:27:50.199Z,2.80
2019-05-22T21:30:17.195Z,2.40
2019-05-22T21:32:43.930Z,2.70
2019-05-22T21:35:10.655Z,2.47
2019-05-22T21:37:37.318Z,2.70
2019-05-22T21:40:04.322Z,2.80
2019-05-22T21:42:31.262Z,2.70
2019-05-22T21:44:58.356Z,2.80
2019-05-22T21:47:26.595Z,3.10
2019-05-22T21:49:53.347Z,2.70
2019-05-22T21:52:20.287Z,2.77
2019-05-22T21:54:49.705Z,2.93
2019-05-22T21:57:16.333Z,2.70
2019-05-22T21:59:42.927Z,3.10
2019-05-22T22:02:10.432Z,3.45
2019-05-22T22:04:37.323Z,2.60
2019-05-22T22:07:04.224Z,2.98
2019-05-22T22:09:30.820Z,3.20
2019-05-22T22:11:57.719Z,2.90
2019-05-22T22:14:24.586Z,2.50
2019-05-22T22:16:51.657Z,3.53
2019-05-22T22:19:18.573Z,3.20
2019-05-22T22:21:45.169Z,2.70
2019-05-22T22:24:11.904Z,2.87
2019-05-22T22:26:38.700Z,3.03
2019-05-22T22:29:05.867Z,3.40
2019-05-22T22:31:32.504Z,3.20
2019-05-22T22:33:59.604Z,3.50
2019-05-22T22:36:26.311Z,3.30
2019-05-22T22:38:52.981Z,3.40
2019-05-22T22:43:46.138Z,3.10
2019-05-22T22:46:12.911Z,3.60
2019-05-22T22:48:39.500Z,3.40
2019-05-22T22:51:06.101Z,3.40
2019-05-22T22:53:32.725Z,3.40
2019-05-22T22:55:59.321Z,3.10
2019-05-22T22:58:26.185Z,3.30
2019-05-22T23:00:52.826Z,3.47
2019-05-22T23:03:19.424Z,3.50
2019-05-22T23:05:46.041Z,3.60
2019-05-22T23:08:12.701Z,3.10
2019-05-22T23:10:39.260Z,3.50
2019-05-22T23:13:05.936Z,3.40
2019-05-22T23:15:32.662Z,3.10
2019-05-22T23:17:59.330Z,3.87
2019-05-22T23:20:25.990Z,3.13
2019-05-22T23:22:52.684Z,3.43
2019-05-22T23:25:19.295Z,3.43
2019-05-22T23:27:47.341Z,2.90
2019-05-22T23:30:14.047Z,3.07
2019-05-22T23:32:40.654Z,3.43
2019-05-22T23:35:07.268Z,3.47
2019-05-22T23:37:34.031Z,4.00
2019-05-22T23:40:00.678Z,3.40
2019-05-22T23:42:27.308Z,3.50
2019-05-22T23:44:53.933Z,3.20
2019-05-22T23:47:22.848Z,3.27
2019-05-22T23:49:49.444Z,2.83
2019-05-22T23:52:16.057Z,3.07
2019-05-22T23:54:42.697Z,3.30
2019-05-22T23:57:09.408Z,3.40
2019-05-22T23:59:36.017Z,3.63
